Latest Coastal Weather Observations for Derby

IDW60701

Issued at 6:43 pm WST Thursday 19 January 2017 (issued every 10 minutes, with the page automatically refreshed every 10 minutes)

About coastal observations | Map of coastal stations | Coastal observations for WA | Marine services | Other Formats
Station Details ID: 003032 Name: DERBY AERO Lat: -17.37 Lon: 123.66 Height: 6.2 m
Data from the previous 72 hours. | See also: Recent months at Derby
Date/Time
WST
Temp
°C
Wind Pressure Rain since
9am
mm
Weather Cloud Vis
km
Sea
Height
m
Swell
Dir  Spd
kts
Gust
kts
hPa Trend Height
m
Period
s
Dir
19/06:30pm 28.1 NW 12 15 1005.0 - 10.4 - - - - - - -
19/06:00pm 28.1 WNW 9 12 1004.8 - 10.4 - - - - - - -
19/05:30pm 28.6 NNW 10 13 1004.4 - 10.4 - - - - - - -
19/05:00pm 28.1 NNW 12 15 1004.2 - 10.4 - - - - - - -
19/04:30pm 27.9 NW 7 14 1003.9 - 9.8 - - - - - - -
19/04:00pm 29.0 NNW 12 15 1003.6 - 9.4 - - - - - - -
19/03:30pm 27.5 NNW 9 10 1004.0 - 9.4 - - - - - - -
19/03:00pm 26.7 NW 15 18 1004.3 - 9.4 Rain - - - - - -
19/02:34pm 26.6 NW 20 32 1004.8 - 8.6 - - - - - - -
19/02:30pm 27.1 NW 20 32 1004.8 - 8.4 - - - - - - -
19/02:28pm 28.3 NNW 18 29 1004.7 - 8.4 - - - - - - -
19/02:00pm 27.2 NNW 17 21 1004.7 - 8.4 - - - - - - -
19/01:30pm 28.6 NNW 17 22 1005.3 - 1.8 - - - - - - -
19/01:00pm 29.0 NNW 17 23 1005.8 - 0.0 - - - - - - -
19/12:30pm 30.7 N 16 22 1005.8 - 0.0 - - - - - - -
19/12:00pm 31.2 NNW 18 23 1006.0 - 0.0 - - - - - - -
19/11:30am 31.1 NNW 17 22 1006.5 - 0.0 - - - - - - -
19/11:00am 31.1 NNW 15 19 1007.0 - 0.0 - - - - - - -
19/10:30am 31.0 NNW 12 15 1007.2 - 0.0 - - - - - - -
19/10:00am 30.1 NNW 11 13 1007.7 - 0.0 - - - - - - -
19/09:30am 29.5 NNW 12 15 1008.1 - 0.0 - - - - - - -
19/09:00am 29.0 NNW 9 11 1008.2 - 26.6 - - - - - - -
19/08:30am 29.0 NW 9 12 1008.2 - 26.6 - - - - - - -
19/08:00am 28.7 NNW 7 8 1008.0 - 26.6 - - - - - - -
19/07:30am 28.2 N 5 7 1008.0 - 26.6 - - - - - - -
19/07:00am 27.9 NE 5 7 1007.7 - 26.6 - - - - - - -
19/06:30am 26.5 NNE 3 5 1007.7 - 26.6 - - - - - - -
19/06:00am 25.9 ENE 4 5 1007.5 - 26.6 - - - - - - -
19/05:30am 25.7 CALM 0 0 1007.2 - 26.6 - - - - - - -
19/05:00am 25.7 CALM 0 0 1007.0 - 26.6 - - - - - - -
19/04:30am 25.8 SW 2 4 1006.7 - 26.6 - - - - - - -
19/04:00am 25.7 WSW 4 5 1006.6 - 26.6 - - - - - - -
19/03:30am 25.9 W 4 4 1006.8 - 26.6 - - - - - - -
19/03:00am 26.1 W 5 6 1006.8 - 26.6 - - - - - - -
19/02:30am 26.3 WNW 7 8 1006.6 - 26.6 - - - - - - -
19/02:00am 26.5 WNW 9 11 1006.7 - 26.6 - - - - - - -
19/01:30am 26.9 NW 9 12 1007.0 - 26.6 - - - - - - -
19/01:00am 26.9 NW 9 10 1007.2 - 26.6 - - - - - - -
19/12:30am 26.6 NNW 8 11 1007.2 - 26.6 - - - - - - -
19/12:00am 26.7 NNW 8 9 1007.6 - 26.6 Recent precip. - - - - - -
 
Date/Time
WST
Temp
°C
Wind Pressure Rain since
9am
mm
Weather Cloud Vis
km
Sea
Height
m
Swell
Dir  Spd
kts
Gust
kts
hPa Trend Height
m
Period
s
Dir
18/11:30pm 26.6 NW 7 8 1008.1 - 26.6 - - - - - - -
18/11:00pm 26.4 NW 7 8 1008.7 - 26.4 - - - - - - -
18/10:30pm 26.4 NW 7 9 1008.7 - 26.4 - - - - - - -
18/10:00pm 26.2 NW 5 6 1008.7 - 26.4 - - - - - - -
18/09:30pm 26.2 NNW 3 4 1008.0 - 26.4 - - - - - - -
18/09:00pm 26.2 N 3 4 1007.2 - 26.4 - - - - - - -
18/08:30pm 26.2 NNW 5 7 1006.5 - 26.4 - - - - - - -
18/08:00pm 26.3 NNW 7 9 1006.1 - 26.4 - - - - - - -
18/07:30pm 26.3 NNW 7 9 1005.9 - 26.4 - - - - - - -
18/07:00pm 26.6 NNW 9 11 1006.0 - 26.4 - - - - - - -
18/06:30pm 26.6 NW 9 11 1005.8 - 26.4 - - - - - - -
18/06:00pm 26.6 NW 7 9 1006.1 - 26.4 - - - - - - -
18/05:30pm 26.6 NW 8 11 1006.5 - 26.4 - - - - - - -
18/05:00pm 26.7 NW 8 10 1006.7 - 26.4 - - - - - - -
18/04:30pm 26.4 NW 10 13 1006.7 - 26.4 - - - - - - -
18/04:00pm 26.4 NW 9 12 1006.5 - 26.4 - - - - - - -
18/03:30pm 26.1 WNW 7 10 1006.6 - 26.2 - - - - - - -
18/03:00pm 25.9 WNW 10 13 1006.7 - 26.2 Recent precip. - - - - - -
18/02:30pm 25.6 NNW 8 11 1006.8 - 26.0 - - - - - - -
18/02:00pm 25.5 NW 7 8 1007.1 - 25.6 - - - - - - -
18/01:30pm 24.9 NW 7 9 1007.2 - 25.0 - - - - - - -
18/01:00pm 25.3 NW 9 13 1007.3 - 23.4 - - - - - - -
18/12:30pm 25.3 S 4 6 1008.1 - 21.6 - - - - - - -
18/12:00pm 25.6 SE 4 5 1008.3 - 21.0 Rain - - - - - -
18/11:30am 25.2 NE 2 4 1008.4 - 20.4 - - - - - - -
18/11:00am 24.7 NE 4 6 1008.5 - 19.4 - - - - - - -
18/10:30am 24.2 NNE 6 9 1009.0 - 16.0 - - - - - - -
18/10:00am 24.5 NW 9 12 1009.4 - 8.6 - - - - - - -
18/09:30am 24.7 N 13 17 1008.6 - 2.0 - - - - - - -
18/09:00am 24.3 N 13 17 1008.6 - 10.4 Rain - - - - - -
18/08:30am 24.9 NNW 15 17 1008.5 - 6.2 - - - - - - -
18/08:00am 25.4 NW 15 19 1007.9 - 2.4 - - - - - - -
18/07:30am 26.4 W 16 19 1007.6 - 0.6 - - - - - - -
18/07:17am 27.1 W 15 22 1007.4 - 0.6 - - - - - - -
18/07:00am 28.0 W 9 11 1007.3 - 0.6 - - - - - - -
18/06:30am 27.2 NE 3 5 1007.1 - 0.6 - - - - - - -
18/06:00am 27.7 NNW 3 4 1007.2 - 0.6 - - - - - - -
18/05:30am 27.5 W 3 4 1006.5 - 0.6 - - - - - - -
18/05:00am 27.6 W 4 5 1006.1 - 0.6 - - - - - - -
18/04:30am 27.7 W 5 6 1005.8 - 0.6 - - - - - - -
18/04:00am 27.6 W 5 6 1005.8 - 0.6 - - - - - - -
18/03:30am 27.7 W 5 6 1005.6 - 0.6 - - - - - - -
18/03:00am 27.6 WNW 4 5 1005.7 - 0.6 Recent precip. - - - - - -
18/02:30am 27.5 WNW 5 6 1005.7 - 0.4 - - - - - - -
18/02:00am 27.5 NNW 5 6 1005.8 - 0.4 - - - - - - -
18/01:30am 27.3 NNW 4 5 1005.8 - 0.4 - - - - - - -
18/01:00am 27.1 CALM 0 0 1005.9 - 0.4 - - - - - - -
18/12:30am 27.1 CALM 0 0 1005.9 - 0.4 - - - - - - -
18/12:00am 27.1 CALM 0 0 1006.5 - 0.4 - - - - - - -
 
Date/Time
WST
Temp
°C
Wind Pressure Rain since
9am
mm
Weather Cloud Vis
km
Sea
Height
m
Swell
Dir  Spd
kts
Gust
kts
hPa Trend Height
m
Period
s
Dir
17/11:30pm 26.9 N 2 3 1007.0 - 0.4 - - - - - - -
17/11:00pm 26.7 NE 3 4 1007.5 - 0.4 - - - - - - -
17/10:30pm 27.1 E 3 4 1007.9 - 0.4 - - - - - - -
17/10:00pm 27.1 NNW 1 3 1007.9 - 0.4 - - - - - - -
17/09:30pm 26.7 NNW 6 8 1007.5 - 0.2 - - - - - - -
17/09:00pm 26.8 N 4 5 1007.6 - 0.0 - - - - - - -
17/08:30pm 26.8 N 4 5 1007.4 - 0.0 - - - - - - -
17/08:00pm 27.2 NE 5 7 1007.4 - 0.0 - - - - - - -
17/07:30pm 27.8 E 4 5 1006.9 - 0.0 - - - - - - -
17/07:00pm 27.6 SW 4 5 1006.7 - 0.0 - - - - - - -
17/06:30pm 27.8 WSW 5 9 1006.2 - 0.0 - - - - - - -
17/06:00pm 28.6 SW 7 9 1005.9 - 0.0 - - - - - - -
17/05:30pm 29.1 WSW 9 11 1005.7 - 0.0 - - - - - - -
17/05:00pm 29.6 W 9 12 1005.0 - 0.0 - - - - - - -
17/04:30pm 29.9 NW 11 13 1004.8 - 0.0 - - - - - - -
17/04:00pm 30.3 NW 11 13 1004.5 - 0.0 - - - - - - -
17/03:30pm 29.9 WNW 12 15 1004.4 - 0.0 - - - - - - -
17/03:00pm 29.0 W 6 8 1004.1 - 0.0 - - - - - - -
17/02:30pm 28.2 W 9 11 1004.7 - 0.0 - - - - - - -
17/02:00pm 29.3 WNW 10 15 1004.8 - 0.0 - - - - - - -
17/01:30pm 30.6 NW 21 29 1005.3 - 0.0 - - - - - - -
17/01:22pm 31.2 NNW 15 28 1005.1 - 0.0 - - - - - - -
17/01:00pm 32.4 NNW 9 13 1005.3 - 0.0 - - - - - - -
17/12:30pm 30.8 NNE 6 8 1005.3 - 0.0 - - - - - - -
17/12:00pm 30.7 N 5 7 1005.9 - 0.0 - - - - - - -
17/11:30am 30.7 NNW 7 8 1006.4 - 0.0 - - - - - - -
17/11:00am 31.1 NNW 7 9 1006.8 - 0.0 - - - - - - -
17/10:30am 31.0 NW 8 10 1006.7 - 0.0 - - - - - - -
17/10:00am 30.4 NW 7 9 1007.1 - 0.0 - - - - - - -
17/09:30am 30.2 WNW 7 9 1007.3 - 0.0 - - - - - - -
17/09:00am 30.1 NW 7 9 1007.3 - 0.0 - - - - - - -
17/08:30am 29.5 NW 7 9 1007.4 - 0.0 - - - - - - -
17/08:00am 29.2 NW 5 7 1007.3 - 0.0 - - - - - - -
17/07:30am 28.8 NW 5 6 1007.2 - 0.0 - - - - - - -
17/07:00am 28.4 NNW 4 5 1007.1 - 0.0 - - - - - - -
17/06:30am 28.2 NNW 4 5 1006.9 - 0.0 - - - - - - -
17/06:00am 27.8 NNW 5 6 1006.8 - 0.0 - - - - - - -
17/05:30am 27.6 NNW 5 6 1006.5 - 0.0 - - - - - - -
17/05:00am 27.6 NW 4 4 1006.2 - 0.0 - - - - - - -
17/04:30am 27.7 NW 5 5 1006.0 - 0.0 - - - - - - -
17/04:00am 27.9 NW 6 8 1005.7 - 0.0 - - - - - - -
17/03:30am 27.9 WNW 5 7 1005.7 - 0.0 - - - - - - -
17/03:00am 27.9 WNW 5 6 1005.6 - 0.0 - - - - - - -
17/02:30am 27.9 WNW 5 6 1005.7 - 0.0 - - - - - - -
17/02:00am 27.8 NW 5 6 1005.7 - 0.0 - - - - - - -
17/01:30am 27.9 WNW 5 6 1005.8 - 0.0 - - - - - - -
17/01:00am 28.0 WNW 6 7 1005.8 - 0.0 - - - - - - -
17/12:30am 28.2 WNW 7 8 1005.9 - 0.0 - - - - - - -
17/12:00am 28.4 WNW 7 10 1006.2 - 0.0 - - - - - - -
 
Date/Time
WST
Temp
°C
Wind Pressure Rain since
9am
mm
Weather Cloud Vis
km
Sea
Height
m
Swell
Dir  Spd
kts
Gust
kts
hPa Trend Height
m
Period
s
Dir
16/11:30pm 28.5 WNW 7 9 1006.6 - 0.0 - - - - - - -
16/11:00pm 28.8 NW 9 10 1006.8 - 0.0 - - - - - - -
16/10:30pm 29.0 NW 10 13 1007.0 - 0.0 - - - - - - -
16/10:00pm 29.1 NW 10 12 1007.1 - 0.0 - - - - - - -
16/09:30pm 29.2 WNW 10 13 1007.0 - 0.0 - - - - - - -
16/09:00pm 29.2 NNW 11 14 1007.0 - 0.0 - - - - - - -
16/08:30pm 29.4 NNW 14 17 1006.8 - 0.0 - - - - - - -
16/08:00pm 29.4 NNW 14 18 1006.6 - 0.0 - - - - - - -
16/07:30pm 29.4 NNW 12 15 1006.5 - 0.0 - - - - - - -
16/07:00pm 29.6 NNW 11 14 1005.9 - 0.0 - - - - - - -

Other Formats:

Comma delimited format used in spreadsheet applications
http://www.bom.gov.au/fwo/IDW60701/IDW60701.95205.axf

JavaScript Object Notation format (JSON) in row-major order
http://www.bom.gov.au/fwo/IDW60701/IDW60701.95205.json